Terminal Aerodrome Forecast
Issued by NWS Greer, SC

Home | Current Version | Previous Version | Text Only | Print | Product List | Glossary On
Versions: 1 2 3 4 5 6 7 8 9 10 11 12 13 14 15 16 17 18 19 20 21 22 23 24 25
000
FTUS42 KGSP 011600 AAB
TAFGSP
TAF AMD
KGSP 011632Z 0117/0212 02011KT P6SM -SHRA BKN012 OVC025
      TEMPO 0117/0120 -SHRA BKN025
     FM012000 05004KT P6SM VCSH OVC025
     FM020300 00000KT P6SM OVC010=

USA.gov is the U.S. government's official web portal to all federal, state and local government web resources and services.